Time;durP1;ratioP1;P1;durP2;ratioP2;P2;SDS_P1;SDS_P2;PMS_P1;PMS_P2;Temp;Humidity;BMP_temperature;BMP_pressure;BME280_temperature;BME280_humidity;BME280_pressure;Samples;Min_cycle;Max_cycle;Signal;HPM_P1;HPM_P2
2021/12/12 00:01:33;;;;;;;7.53;3.08;;;;;;;;;;8279345;28;20045;-64
2021/12/12 00:05:36;;;;;;;10.35;3.92;;;;;;;;;;8278487;28;20032;-64
2021/12/12 00:09:39;;;;;;;7.88;3.83;;;;;;;;;;8282137;28;20037;-64
2021/12/12 00:13:52;;;;;;;12.43;4.15;;;;;;;;;;8279129;28;20030;-65
2021/12/12 00:17:52;;;;;;;8.63;3.15;;;;;;;;;;8283329;28;20045;-64
2021/12/12 00:21:54;;;;;;;10.48;3.30;;;;;;;;;;8283151;28;20106;-64
2021/12/12 00:25:56;;;;;;;9.98;3.58;;;;;;;;;;8281236;28;20843;-64
2021/12/12 00:30:02;;;;;;;11.00;3.25;;;;;;;;;;8285028;28;20030;-64
2021/12/12 00:34:03;;;;;;;8.55;3.10;;;;;;;;;;8285878;28;20079;-64
2021/12/12 00:38:05;;;;;;;14.77;3.30;;;;;;;;;;8289454;28;20450;-65
2021/12/12 00:42:07;;;;;;;5.80;2.75;;;;;;;;;;8285784;28;20060;-64
2021/12/12 00:46:08;;;;;;;7.32;2.67;;;;;;;;;;8287020;28;20049;-64
2021/12/12 00:50:12;;;;;;;7.75;3.03;;;;;;;;;;8290148;28;20423;-64
2021/12/12 00:54:13;;;;;;;7.97;3.15;;;;;;;;;;8286344;28;20061;-64
2021/12/12 00:58:16;;;;;;;8.10;2.78;;;;;;;;;;8284228;28;20541;-65
2021/12/12 01:02:20;;;;;;;9.30;2.83;;;;;;;;;;8285878;28;20076;-64
2021/12/12 01:06:21;;;;;;;7.72;2.65;;;;;;;;;;8287564;28;20032;-64
2021/12/12 01:10:24;;;;;;;5.03;2.60;;;;;;;;;;8288378;28;20042;-64
2021/12/12 01:14:26;;;;;;;8.18;2.55;;;;;;;;;;8287782;28;20128;-64
2021/12/12 01:18:29;;;;;;;8.45;2.05;;;;;;;;;;8285352;28;20042;-64
2021/12/12 01:22:33;;;;;;;6.30;2.67;;;;;;;;;;8286729;28;20478;-64
2021/12/12 01:26:33;;;;;;;8.57;3.22;;;;;;;;;;8285047;28;20571;-64
2021/12/12 01:30:33;;;;;;;22.10;9.25;;;;;;;;;;8287038;28;20069;-64
2021/12/12 01:34:34;;;;;;;7.97;4.83;;;;;;;;;;8289138;28;20027;-64
2021/12/12 01:43:03;;;;;;;6.50;3.58;;;;;;;;;;8286241;28;20040;-64
2021/12/12 01:47:08;;;;;;;9.50;3.42;;;;;;;;;;8284695;28;20072;-64
2021/12/12 01:51:09;;;;;;;7.70;2.78;;;;;;;;;;8285809;28;20020;-64
2021/12/12 01:55:22;;;;;;;4.20;2.28;;;;;;;;;;8283092;28;20029;-64
2021/12/12 01:59:23;;;;;;;7.28;2.15;;;;;;;;;;8286476;28;20520;-64
2021/12/12 02:03:27;;;;;;;2.88;1.88;;;;;;;;;;8285205;28;20056;-64
2021/12/12 02:07:29;;;;;;;4.37;1.90;;;;;;;;;;8286846;28;20020;-65
2021/12/12 02:11:31;;;;;;;10.15;2.13;;;;;;;;;;8285987;28;20025;-64
2021/12/12 02:15:34;;;;;;;6.75;1.80;;;;;;;;;;8284317;28;20033;-64
2021/12/12 02:20:20;;;;;;;10.95;2.20;;;;;;;;;;8286086;28;21321;-64
2021/12/12 02:36:51;;;;;;;8.60;2.13;;;;;;;;;;8285756;28;20095;-64
2021/12/12 02:40:53;;;;;;;11.10;3.15;;;;;;;;;;8286040;28;20029;-64
2021/12/12 02:44:57;;;;;;;8.05;2.60;;;;;;;;;;8284277;28;20029;-64
2021/12/12 02:49:05;;;;;;;7.60;2.90;;;;;;;;;;8279872;28;20057;-64
2021/12/12 02:53:15;;;;;;;7.60;2.72;;;;;;;;;;8285035;28;20144;-64
2021/12/12 02:57:16;;;;;;;6.28;2.50;;;;;;;;;;8282352;28;20030;-64
2021/12/12 03:01:16;;;;;;;7.15;2.60;;;;;;;;;;8284305;28;20069;-64
2021/12/12 03:05:21;;;;;;;10.05;2.10;;;;;;;;;;8283524;28;20075;-64
2021/12/12 03:09:21;;;;;;;;;;;;;;;;;;8282995;28;20263;-64
2021/12/12 03:13:22;;;;;;;10.48;2.17;;;;;;;;;;8284266;28;19947;-64
2021/12/12 03:17:23;;;;;;;8.05;2.17;;;;;;;;;;8283917;28;20494;-64
2021/12/12 03:21:32;;;;;;;11.07;2.15;;;;;;;;;;8283023;28;20506;-64
2021/12/12 03:25:34;;;;;;;7.20;1.83;;;;;;;;;;8282996;28;20156;-64
2021/12/12 03:29:35;;;;;;;6.43;1.77;;;;;;;;;;8286128;28;20381;-64
2021/12/12 03:33:35;;;;;;;7.78;1.73;;;;;;;;;;8282509;28;20042;-64
2021/12/12 03:37:36;;;;;;;10.02;2.33;;;;;;;;;;8285155;28;20034;-64
2021/12/12 03:41:37;;;;;;;6.72;2.35;;;;;;;;;;8284451;28;20441;-64
2021/12/12 03:45:38;;;;;;;6.70;1.98;;;;;;;;;;8280742;28;20791;-64
2021/12/12 03:49:38;;;;;;;9.07;2.00;;;;;;;;;;8281729;28;20144;-65
2021/12/12 03:53:39;;;;;;;5.72;1.55;;;;;;;;;;8284489;28;20094;-64
2021/12/12 03:57:39;;;;;;;7.13;1.98;;;;;;;;;;8281017;28;20026;-64
2021/12/12 04:01:43;;;;;;;6.45;1.90;;;;;;;;;;8280957;28;20118;-64
2021/12/12 04:05:44;;;;;;;6.35;1.67;;;;;;;;;;8283685;28;20603;-64
2021/12/12 04:09:45;;;;;;;11.82;2.33;;;;;;;;;;8290167;28;20033;-64
2021/12/12 04:13:46;;;;;;;7.82;1.70;;;;;;;;;;8289855;28;20081;-64
2021/12/12 04:17:46;;;;;;;12.95;2.00;;;;;;;;;;8285277;28;20161;-64
2021/12/12 04:21:47;;;;;;;4.50;1.40;;;;;;;;;;8288745;28;20617;-64
2021/12/12 04:25:48;;;;;;;9.20;2.55;;;;;;;;;;8286641;28;21006;-64
2021/12/12 04:29:50;;;;;;;8.10;1.80;;;;;;;;;;8291818;28;20095;-64
2021/12/12 04:33:51;;;;;;;4.10;1.70;;;;;;;;;;8290269;28;20722;-64
2021/12/12 04:37:52;;;;;;;5.38;1.60;;;;;;;;;;8288830;28;20223;-64
2021/12/12 04:41:54;;;;;;;9.55;1.75;;;;;;;;;;8286840;28;20037;-64
2021/12/12 04:46:08;;;;;;;6.25;1.70;;;;;;;;;;8283495;28;20513;-64
2021/12/12 04:50:09;;;;;;;6.55;1.85;;;;;;;;;;8286951;28;20021;-64
2021/12/12 04:54:18;;;;;;;7.78;1.90;;;;;;;;;;8288851;28;20022;-64
2021/12/12 04:58:26;;;;;;;6.93;1.63;;;;;;;;;;8288590;28;20119;-64
2021/12/12 05:02:31;;;;;;;5.32;1.50;;;;;;;;;;8285703;28;20041;-64
2021/12/12 05:06:39;;;;;;;4.10;1.33;;;;;;;;;;8287825;28;20362;-64
2021/12/12 05:10:42;;;;;;;4.60;1.30;;;;;;;;;;8285859;28;20036;-65
2021/12/12 05:14:47;;;;;;;3.58;1.35;;;;;;;;;;8286819;28;20017;-64
2021/12/12 05:18:50;;;;;;;9.32;2.10;;;;;;;;;;8273931;28;20049;-64
2021/12/12 05:22:52;;;;;;;6.32;1.45;;;;;;;;;;8285132;28;20383;-64
2021/12/12 05:26:57;;;;;;;5.78;1.48;;;;;;;;;;8285453;28;20361;-64
2021/12/12 05:31:00;;;;;;;4.63;1.38;;;;;;;;;;8286427;28;20152;-64
2021/12/12 05:35:01;;;;;;;7.88;1.40;;;;;;;;;;8284246;28;20029;-64
2021/12/12 05:39:05;;;;;;;6.03;1.40;;;;;;;;;;8286594;28;20646;-64
2021/12/12 05:43:06;;;;;;;7.43;1.17;;;;;;;;;;8283899;28;20450;-64
2021/12/12 05:47:07;;;;;;;6.53;1.30;;;;;;;;;;8285311;28;20041;-64
2021/12/12 05:51:08;;;;;;;5.22;1.33;;;;;;;;;;8287710;28;20574;-64
2021/12/12 05:55:08;;;;;;;5.50;1.58;;;;;;;;;;8286647;28;20032;-64
2021/12/12 05:59:09;;;;;;;10.93;2.10;;;;;;;;;;8285189;28;20056;-64
2021/12/12 06:03:10;;;;;;;7.88;1.42;;;;;;;;;;8284629;28;20048;-64
2021/12/12 06:07:14;;;;;;;7.93;2.10;;;;;;;;;;8281516;28;20021;-64
2021/12/12 06:11:15;;;;;;;4.57;1.58;;;;;;;;;;8287664;28;20029;-64
2021/12/12 06:15:17;;;;;;;7.10;1.45;;;;;;;;;;8282699;28;20040;-64
2021/12/12 06:19:20;;;;;;;7.28;1.40;;;;;;;;;;8282057;28;20031;-64
2021/12/12 06:23:21;;;;;;;6.97;1.35;;;;;;;;;;8283976;28;20020;-64
2021/12/12 06:27:21;;;;;;;14.15;2.05;;;;;;;;;;8284262;28;20051;-64
2021/12/12 06:31:22;;;;;;;5.00;1.17;;;;;;;;;;8280710;28;20489;-64
2021/12/12 06:35:24;;;;;;;5.00;1.30;;;;;;;;;;8286481;28;20630;-64
2021/12/12 06:39:24;;;;;;;12.88;1.92;;;;;;;;;;8283289;28;20048;-64
2021/12/12 06:43:25;;;;;;;5.05;1.20;;;;;;;;;;8284404;28;20032;-64
2021/12/12 06:47:26;;;;;;;5.20;1.50;;;;;;;;;;8284790;28;20132;-64
2021/12/12 06:51:27;;;;;;;5.90;1.10;;;;;;;;;;8281472;28;20029;-64
2021/12/12 06:55:29;;;;;;;6.72;1.17;;;;;;;;;;8282240;28;20024;-64
2021/12/12 06:59:30;;;;;;;6.15;1.60;;;;;;;;;;8280427;28;20040;-64
2021/12/12 07:03:31;;;;;;;7.20;1.52;;;;;;;;;;8283439;28;20034;-64
2021/12/12 07:07:32;;;;;;;7.68;1.50;;;;;;;;;;8282150;28;20566;-64
2021/12/12 07:11:32;;;;;;;4.75;1.38;;;;;;;;;;8282854;28;20030;-64
2021/12/12 07:15:36;;;;;;;4.68;1.30;;;;;;;;;;8281273;28;20037;-64
2021/12/12 07:19:37;;;;;;;6.30;1.30;;;;;;;;;;8283028;28;20353;-64
2021/12/12 07:23:38;;;;;;;9.75;1.45;;;;;;;;;;8280603;28;20040;-64
2021/12/12 07:27:38;;;;;;;8.57;1.23;;;;;;;;;;8284492;28;20029;-64
2021/12/12 07:31:40;;;;;;;5.80;1.40;;;;;;;;;;8281009;28;20042;-64
2021/12/12 07:35:42;;;;;;;7.03;1.77;;;;;;;;;;8282211;28;20029;-64
2021/12/12 07:39:43;;;;;;;3.50;1.08;;;;;;;;;;8283259;28;20693;-64
2021/12/12 07:43:44;;;;;;;5.32;1.33;;;;;;;;;;8288171;28;20820;-64
2021/12/12 07:47:44;;;;;;;4.20;1.42;;;;;;;;;;8285186;28;20100;-64
2021/12/12 07:51:44;;;;;;;5.37;1.37;;;;;;;;;;8288672;28;20052;-64
2021/12/12 07:55:46;;;;;;;8.35;1.50;;;;;;;;;;8292454;28;20646;-64
2021/12/12 07:59:47;;;;;;;7.47;1.52;;;;;;;;;;8289308;28;20940;-64
2021/12/12 08:03:47;;;;;;;4.93;1.17;;;;;;;;;;8288953;28;20407;-64
2021/12/12 08:07:47;;;;;;;4.43;1.42;;;;;;;;;;8287319;28;20034;-65
2021/12/12 08:11:48;;;;;;;8.20;1.73;;;;;;;;;;8289177;28;20086;-64
2021/12/12 08:15:48;;;;;;;5.28;1.70;;;;;;;;;;8287355;28;20819;-64
2021/12/12 08:19:49;;;;;;;5.88;1.60;;;;;;;;;;8287806;28;20453;-64
2021/12/12 08:23:49;;;;;;;5.85;1.70;;;;;;;;;;8290956;28;20167;-64
2021/12/12 08:27:49;;;;;;;8.68;1.45;;;;;;;;;;8285998;28;20033;-64
2021/12/12 08:31:50;;;;;;;6.15;1.67;;;;;;;;;;8288437;28;20061;-64
2021/12/12 08:35:50;;;;;;;7.07;1.80;;;;;;;;;;8287682;28;20026;-65
2021/12/12 08:39:50;;;;;;;11.77;1.70;;;;;;;;;;8286301;28;20037;-64
2021/12/12 08:43:51;;;;;;;5.35;1.20;;;;;;;;;;8287122;28;20115;-64
2021/12/12 08:47:51;;;;;;;6.80;1.50;;;;;;;;;;8285647;28;20172;-65
2021/12/12 08:51:55;;;;;;;9.23;1.40;;;;;;;;;;8284078;28;20029;-64
2021/12/12 08:55:57;;;;;;;9.35;1.65;;;;;;;;;;8286278;28;20026;-65
2021/12/12 08:59:58;;;;;;;11.35;3.30;;;;;;;;;;8291055;28;20448;-64
2021/12/12 09:04:00;;;;;;;12.10;2.63;;;;;;;;;;8287051;28;20041;-64
2021/12/12 09:08:04;;;;;;;11.63;1.90;;;;;;;;;;8289880;28;20546;-64
2021/12/12 09:12:14;;;;;;;9.13;2.65;;;;;;;;;;8290731;28;20026;-64
2021/12/12 09:16:20;;;;;;;10.57;2.90;;;;;;;;;;8292077;28;20088;-64
2021/12/12 09:20:25;;;;;;;21.40;6.38;;;;;;;;;;8292791;28;21024;-64
2021/12/12 09:24:43;;;;;;;20.52;6.35;;;;;;;;;;8292352;28;20022;-64
2021/12/12 09:28:44;;;;;;;7.85;3.20;;;;;;;;;;8291945;28;20030;-64
2021/12/12 09:32:51;;;;;;;15.55;4.22;;;;;;;;;;8291184;28;20049;-64
2021/12/12 09:36:54;;;;;;;12.48;5.00;;;;;;;;;;8293508;28;20032;-64
2021/12/12 09:40:58;;;;;;;15.40;4.88;;;;;;;;;;8291392;28;20056;-65
2021/12/12 09:45:16;;;;;;;11.98;2.50;;;;;;;;;;8292446;28;20035;-64
2021/12/12 09:53:50;;;;;;;9.48;2.83;;;;;;;;;;8292606;28;20722;-65
2021/12/12 09:57:50;;;;;;;13.32;4.07;;;;;;;;;;8290983;28;20041;-64
2021/12/12 10:01:54;;;;;;;11.45;3.25;;;;;;;;;;8290452;28;20037;-64
2021/12/12 10:05:57;;;;;;;10.68;2.97;;;;;;;;;;8292842;28;20031;-64
2021/12/12 10:09:59;;;;;;;6.15;2.90;;;;;;;;;;8289807;28;20235;-64
2021/12/12 10:14:00;;;;;;;7.28;1.70;;;;;;;;;;8291348;28;20190;-64
2021/12/12 10:18:08;;;;;;;7.35;2.35;;;;;;;;;;8292240;28;20149;-64
2021/12/12 10:22:20;;;;;;;8.02;1.60;;;;;;;;;;8292467;28;20042;-65
2021/12/12 10:26:28;;;;;;;5.15;1.63;;;;;;;;;;8291525;28;20519;-64
2021/12/12 10:30:28;;;;;;;6.72;1.83;;;;;;;;;;8290941;28;20045;-65
2021/12/12 10:34:33;;;;;;;10.90;3.78;;;;;;;;;;8289624;28;20029;-65
2021/12/12 10:38:33;;;;;;;12.23;2.78;;;;;;;;;;8292025;28;20025;-64
2021/12/12 10:42:36;;;;;;;6.25;1.80;;;;;;;;;;8288310;28;20037;-65
2021/12/12 10:46:36;;;;;;;4.88;1.70;;;;;;;;;;8291625;28;20036;-64
2021/12/12 10:50:51;;;;;;;3.00;1.15;;;;;;;;;;8284809;28;20071;-64
2021/12/12 10:54:56;;;;;;;3.67;1.45;;;;;;;;;;8283141;28;20056;-65
2021/12/12 10:58:58;;;;;;;3.63;1.00;;;;;;;;;;8282781;28;20389;-64
2021/12/12 11:03:10;;;;;;;3.60;1.10;;;;;;;;;;8284095;28;20046;-65
2021/12/12 11:07:16;;;;;;;2.42;1.10;;;;;;;;;;8281987;28;20047;-64
2021/12/12 11:11:21;;;;;;;2.20;1.00;;;;;;;;;;8280806;28;20021;-64
2021/12/12 11:15:51;;;;;;;2.70;1.27;;;;;;;;;;8281872;28;20160;-65
2021/12/12 11:19:58;;;;;;;3.28;1.10;;;;;;;;;;8273814;28;20048;-64
2021/12/12 11:24:01;;;;;;;3.88;1.25;;;;;;;;;;8281430;28;20048;-64
2021/12/12 11:28:04;;;;;;;3.28;1.00;;;;;;;;;;8283260;28;20060;-64
2021/12/12 11:32:07;;;;;;;3.10;1.10;;;;;;;;;;8282138;28;20571;-64
2021/12/12 11:36:12;;;;;;;5.60;1.33;;;;;;;;;;8283165;28;20032;-65
2021/12/12 11:40:19;;;;;;;4.53;1.20;;;;;;;;;;8284117;28;20028;-64
2021/12/12 11:44:26;;;;;;;3.08;1.08;;;;;;;;;;8281812;28;20021;-64
2021/12/12 11:48:40;;;;;;;2.90;1.40;;;;;;;;;;8283916;28;20826;-64
2021/12/12 11:52:58;;;;;;;2.60;1.17;;;;;;;;;;8285650;28;20025;-64
2021/12/12 11:57:04;;;;;;;3.88;1.13;;;;;;;;;;8281947;28;20033;-64
2021/12/12 12:01:11;;;;;;;3.58;1.42;;;;;;;;;;8280300;28;20118;-65
2021/12/12 12:05:30;;;;;;;1.92;1.10;;;;;;;;;;8282447;28;20155;-65
2021/12/12 12:09:41;;;;;;;4.50;2.05;;;;;;;;;;8283000;28;20083;-64
2021/12/12 12:13:42;;;;;;;4.00;1.65;;;;;;;;;;8281559;28;20083;-65
2021/12/12 12:17:45;;;;;;;6.45;2.20;;;;;;;;;;8283907;28;20038;-65
2021/12/12 12:22:04;;;;;;;3.85;1.63;;;;;;;;;;8282544;28;20037;-65
2021/12/12 12:30:35;;;;;;;2.85;1.40;;;;;;;;;;8288611;28;20146;-65
2021/12/12 12:34:38;;;;;;;2.60;1.33;;;;;;;;;;8287319;28;20033;-66
2021/12/12 12:38:58;;;;;;;2.60;1.57;;;;;;;;;;8287186;28;20025;-65
2021/12/12 12:42:58;;;;;;;2.10;1.60;;;;;;;;;;8289604;28;20116;-65
2021/12/12 12:47:17;;;;;;;3.22;1.90;;;;;;;;;;8286941;28;20586;-65
2021/12/12 12:51:35;;;;;;;6.78;3.70;;;;;;;;;;8287231;28;20148;-65
2021/12/12 12:55:39;;;;;;;8.07;3.45;;;;;;;;;;8284095;28;20578;-65
2021/12/12 12:59:50;;;;;;;8.25;3.80;;;;;;;;;;8288748;28;20187;-64
2021/12/12 13:04:02;;;;;;;4.80;2.38;;;;;;;;;;8288153;28;20886;-65
2021/12/12 13:08:31;;;;;;;4.13;2.17;;;;;;;;;;8288122;28;20461;-65
2021/12/12 13:12:37;;;;;;;6.32;2.58;;;;;;;;;;8287325;28;20037;-65
2021/12/12 13:16:43;;;;;;;5.68;2.03;;;;;;;;;;8288403;28;20528;-65
2021/12/12 13:20:57;;;;;;;5.43;2.40;;;;;;;;;;8286676;28;20025;-64
2021/12/12 13:25:12;;;;;;;2.72;1.90;;;;;;;;;;8275961;28;20044;-65
2021/12/12 13:29:16;;;;;;;6.82;2.25;;;;;;;;;;8286045;28;20039;-65
2021/12/12 13:33:36;;;;;;;4.88;2.65;;;;;;;;;;8287616;28;20132;-64
2021/12/12 13:37:50;;;;;;;7.38;2.83;;;;;;;;;;8285727;28;20839;-65
2021/12/12 13:41:51;;;;;;;4.60;2.50;;;;;;;;;;8284957;28;20041;-65
2021/12/12 13:46:03;;;;;;;6.00;2.80;;;;;;;;;;8287583;28;20095;-65
2021/12/12 13:50:06;;;;;;;7.88;2.97;;;;;;;;;;8285003;28;20084;-65
2021/12/12 13:54:06;;;;;;;6.07;2.88;;;;;;;;;;8284265;28;20082;-65
2021/12/12 13:58:25;;;;;;;5.32;2.70;;;;;;;;;;8285616;28;20386;-64
2021/12/12 14:02:26;;;;;;;7.65;3.40;;;;;;;;;;8284232;28;20153;-64
2021/12/12 14:06:27;;;;;;;5.18;2.97;;;;;;;;;;8285017;28;20496;-64
2021/12/12 14:10:29;;;;;;;6.13;2.97;;;;;;;;;;8284306;28;20574;-64
2021/12/12 14:14:36;;;;;;;5.28;2.85;;;;;;;;;;8283381;28;20030;-64
2021/12/12 14:18:40;;;;;;;3.97;3.00;;;;;;;;;;8285098;28;20556;-64
2021/12/12 14:22:40;;;;;;;5.13;3.35;;;;;;;;;;8286881;28;20190;-65
2021/12/12 14:26:43;;;;;;;5.90;2.90;;;;;;;;;;8284998;28;20030;-64
2021/12/12 14:30:44;;;;;;;5.60;3.63;;;;;;;;;;8285770;28;20115;-64
2021/12/12 14:34:49;;;;;;;12.15;5.82;;;;;;;;;;8282571;28;20037;-64
2021/12/12 14:38:50;;;;;;;9.88;4.40;;;;;;;;;;8288484;28;20041;-64
2021/12/12 14:42:53;;;;;;;6.55;3.83;;;;;;;;;;8282362;28;20163;-65
2021/12/12 14:46:56;;;;;;;7.53;4.10;;;;;;;;;;8279013;28;20416;-65
2021/12/12 14:51:09;;;;;;;6.97;3.47;;;;;;;;;;8283840;28;20024;-64
2021/12/12 14:55:13;;;;;;;4.67;3.50;;;;;;;;;;8285834;28;20029;-65
2021/12/12 14:59:21;;;;;;;5.63;3.85;;;;;;;;;;8286831;28;20409;-64
2021/12/12 15:03:26;;;;;;;10.70;4.28;;;;;;;;;;8283551;28;20099;-64
2021/12/12 15:07:30;;;;;;;8.93;4.47;;;;;;;;;;8283627;28;20444;-64
2021/12/12 15:11:37;;;;;;;5.95;4.68;;;;;;;;;;8285026;28;20032;-71
2021/12/12 15:15:41;;;;;;;7.85;4.18;;;;;;;;;;8282895;28;20623;-65
2021/12/12 15:19:49;;;;;;;7.00;4.57;;;;;;;;;;8283678;28;20052;-64
2021/12/12 15:23:52;;;;;;;7.30;4.57;;;;;;;;;;8283139;28;20041;-65
2021/12/12 15:27:52;;;;;;;8.50;4.85;;;;;;;;;;8282642;28;20091;-64
2021/12/12 15:31:54;;;;;;;8.43;5.15;;;;;;;;;;8281606;28;20585;-64
2021/12/12 15:35:56;;;;;;;7.88;4.95;;;;;;;;;;8285632;28;20060;-65
2021/12/12 15:39:58;;;;;;;10.07;6.47;;;;;;;;;;8283425;28;20021;-65
2021/12/12 15:44:04;;;;;;;7.38;4.90;;;;;;;;;;8281646;28;20021;-64
2021/12/12 15:48:08;;;;;;;7.55;5.40;;;;;;;;;;8279848;28;20048;-65
2021/12/12 15:52:23;;;;;;;8.73;4.70;;;;;;;;;;8283574;28;20079;-65
2021/12/12 15:56:26;;;;;;;9.73;5.60;;;;;;;;;;8283951;28;20213;-65
2021/12/12 16:00:31;;;;;;;10.50;6.28;;;;;;;;;;8284820;28;20037;-64
2021/12/12 16:04:33;;;;;;;12.30;6.95;;;;;;;;;;8287474;28;20022;-65
2021/12/12 16:08:40;;;;;;;10.57;6.40;;;;;;;;;;8289892;28;20413;-64
2021/12/12 16:12:41;;;;;;;9.88;5.70;;;;;;;;;;8289238;28;20080;-65
2021/12/12 16:16:46;;;;;;;9.73;5.60;;;;;;;;;;8285634;28;20116;-64
2021/12/12 16:20:49;;;;;;;10.45;5.90;;;;;;;;;;8292327;28;20029;-65
2021/12/12 16:24:51;;;;;;;6.65;4.75;;;;;;;;;;8288370;28;20025;-65
2021/12/12 16:28:51;;;;;;;7.75;5.25;;;;;;;;;;8288716;28;20269;-65
2021/12/12 16:32:54;;;;;;;9.95;5.15;;;;;;;;;;8288138;28;20095;-64
2021/12/12 16:37:02;;;;;;;8.40;5.55;;;;;;;;;;8286055;28;20044;-65
2021/12/12 16:41:05;;;;;;;8.93;6.05;;;;;;;;;;8284464;28;20364;-65
2021/12/12 16:45:11;;;;;;;11.18;6.22;;;;;;;;;;8286507;28;20029;-65
2021/12/12 16:49:15;;;;;;;9.65;5.30;;;;;;;;;;8287117;28;20463;-65
2021/12/12 16:53:25;;;;;;;9.20;5.47;;;;;;;;;;8290242;28;20518;-65
2021/12/12 16:57:28;;;;;;;13.00;5.35;;;;;;;;;;8286775;28;20694;-65
2021/12/12 17:01:34;;;;;;;11.18;5.80;;;;;;;;;;8288562;28;20046;-64
2021/12/12 17:05:35;;;;;;;11.68;6.38;;;;;;;;;;8288240;28;20151;-64
2021/12/12 17:09:36;;;;;;;12.18;6.80;;;;;;;;;;8300070;28;20178;-64
2021/12/12 17:13:37;;;;;;;11.27;6.65;;;;;;;;;;8288558;28;20099;-64
2021/12/12 17:17:38;;;;;;;15.45;6.68;;;;;;;;;;8284599;28;20219;-64
2021/12/12 17:21:43;;;;;;;10.50;6.63;;;;;;;;;;8285442;28;20490;-64
2021/12/12 17:25:45;;;;;;;11.40;6.30;;;;;;;;;;8285060;28;20075;-65
2021/12/12 17:29:46;;;;;;;9.82;5.28;;;;;;;;;;8288208;28;20453;-64
2021/12/12 17:33:52;;;;;;;10.63;6.10;;;;;;;;;;8284736;28;20037;-64
2021/12/12 17:37:54;;;;;;;8.82;5.80;;;;;;;;;;8286555;28;20036;-64
2021/12/12 17:42:14;;;;;;;9.38;6.07;;;;;;;;;;8284610;28;20898;-64
2021/12/12 17:46:24;;;;;;;11.25;6.80;;;;;;;;;;8286579;28;20464;-64
2021/12/12 17:50:43;;;;;;;9.77;5.80;;;;;;;;;;8287181;28;20826;-64
2021/12/12 17:54:48;;;;;;;9.70;6.85;;;;;;;;;;8287441;28;20478;-64
2021/12/12 17:59:01;;;;;;;9.52;6.53;;;;;;;;;;8286129;28;20034;-65
2021/12/12 18:03:03;;;;;;;10.48;5.93;;;;;;;;;;8285257;28;20052;-65
2021/12/12 18:07:05;;;;;;;14.93;7.32;;;;;;;;;;8287298;28;20040;-65
2021/12/12 18:11:06;;;;;;;15.68;7.55;;;;;;;;;;8284504;28;20032;-64
2021/12/12 18:15:12;;;;;;;15.43;7.75;;;;;;;;;;8284013;28;20027;-65
2021/12/12 18:19:31;;;;;;;14.32;8.02;;;;;;;;;;8289530;28;20114;-65
2021/12/12 18:23:32;;;;;;;11.43;6.70;;;;;;;;;;8283833;28;20090;-64
2021/12/12 18:27:34;;;;;;;12.27;6.75;;;;;;;;;;8286875;28;20047;-64
2021/12/12 18:31:45;;;;;;;10.73;6.35;;;;;;;;;;8284207;28;20397;-64
2021/12/12 18:35:54;;;;;;;12.77;7.55;;;;;;;;;;8283809;28;20049;-64
2021/12/12 18:39:56;;;;;;;10.43;7.35;;;;;;;;;;8283273;28;20304;-65
2021/12/12 18:44:02;;;;;;;10.48;5.93;;;;;;;;;;8288424;28;20032;-65
2021/12/12 18:48:05;;;;;;;10.20;7.47;;;;;;;;;;8279277;28;20045;-65
2021/12/12 18:52:05;;;;;;;7.18;6.03;;;;;;;;;;8285039;28;20671;-65
2021/12/12 18:56:06;;;;;;;11.90;7.27;;;;;;;;;;8282131;28;20553;-65
2021/12/12 19:00:06;;;;;;;11.05;6.93;;;;;;;;;;8281146;28;20279;-64
2021/12/12 19:04:08;;;;;;;9.48;6.63;;;;;;;;;;8286305;28;20045;-64
2021/12/12 19:08:11;;;;;;;9.85;5.88;;;;;;;;;;8287784;28;20566;-64
2021/12/12 19:12:11;;;;;;;10.90;7.30;;;;;;;;;;8291048;28;20057;-64
2021/12/12 19:16:14;;;;;;;9.65;5.95;;;;;;;;;;8289204;28;20498;-65
2021/12/12 19:20:17;;;;;;;11.75;6.80;;;;;;;;;;8292063;28;20033;-65
2021/12/12 19:24:20;;;;;;;9.85;6.72;;;;;;;;;;8292308;28;20403;-65
2021/12/12 19:28:28;;;;;;;8.55;6.25;;;;;;;;;;8287577;28;20387;-65
2021/12/12 19:32:30;;;;;;;9.75;6.20;;;;;;;;;;8286765;28;20034;-64
2021/12/12 19:36:32;;;;;;;12.18;6.28;;;;;;;;;;8291689;28;20116;-64
2021/12/12 19:40:41;;;;;;;10.30;6.82;;;;;;;;;;8292203;28;20121;-65
2021/12/12 19:44:43;;;;;;;8.27;5.93;;;;;;;;;;8290600;28;20044;-65
2021/12/12 19:48:45;;;;;;;7.60;5.05;;;;;;;;;;8286768;28;20565;-65
2021/12/12 19:52:46;;;;;;;9.68;6.07;;;;;;;;;;8290133;28;20135;-65
2021/12/12 19:56:48;;;;;;;8.10;5.40;;;;;;;;;;8290242;28;20022;-66
2021/12/12 20:00:50;;;;;;;7.60;5.85;;;;;;;;;;8290803;28;20531;-64
2021/12/12 20:04:56;;;;;;;8.00;6.28;;;;;;;;;;8288427;28;20053;-65
2021/12/12 20:08:58;;;;;;;10.90;6.65;;;;;;;;;;8289872;28;20441;-64
2021/12/12 20:13:02;;;;;;;9.02;6.93;;;;;;;;;;8288569;28;20023;-65
2021/12/12 20:17:02;;;;;;;8.35;6.13;;;;;;;;;;8288214;28;20486;-64
2021/12/12 20:21:03;;;;;;;10.30;7.00;;;;;;;;;;8291959;28;20033;-64
2021/12/12 20:25:07;;;;;;;8.57;6.38;;;;;;;;;;8289178;28;20032;-65
2021/12/12 20:29:08;;;;;;;9.32;6.03;;;;;;;;;;8290527;28;20032;-65
2021/12/12 20:33:13;;;;;;;9.23;7.35;;;;;;;;;;8289478;28;20034;-64
2021/12/12 20:37:14;;;;;;;10.50;6.47;;;;;;;;;;8289364;28;20072;-65
2021/12/12 20:41:14;;;;;;;10.93;7.25;;;;;;;;;;8290248;28;20508;-64
2021/12/12 20:45:18;;;;;;;10.15;6.53;;;;;;;;;;8287905;28;20095;-65
2021/12/12 20:49:24;;;;;;;10.15;6.97;;;;;;;;;;8289016;28;20029;-64
2021/12/12 20:53:28;;;;;;;8.48;5.57;;;;;;;;;;8285108;28;20071;-64
2021/12/12 20:57:28;;;;;;;9.55;6.97;;;;;;;;;;8283642;28;20460;-65
2021/12/12 21:01:31;;;;;;;10.90;7.07;;;;;;;;;;8284322;28;20044;-64
2021/12/12 21:05:34;;;;;;;11.57;7.05;;;;;;;;;;8286049;28;20040;-64
2021/12/12 21:09:37;;;;;;;9.20;6.63;;;;;;;;;;8287432;28;20034;-64
2021/12/12 21:13:42;;;;;;;10.20;7.10;;;;;;;;;;8288391;28;20127;-64
2021/12/12 21:17:46;;;;;;;10.60;6.70;;;;;;;;;;8282552;28;20037;-64
2021/12/12 21:21:54;;;;;;;9.60;6.57;;;;;;;;;;8286961;28;20361;-64
2021/12/12 21:25:57;;;;;;;11.75;6.82;;;;;;;;;;8290238;28;20936;-64
2021/12/12 21:30:04;;;;;;;11.80;7.10;;;;;;;;;;8291926;28;20025;-64
2021/12/12 21:34:12;;;;;;;9.82;6.45;;;;;;;;;;8288576;28;20073;-64
2021/12/12 21:38:12;;;;;;;8.65;5.82;;;;;;;;;;8290932;28;20879;-64
2021/12/12 21:42:15;;;;;;;9.05;6.18;;;;;;;;;;8291482;28;20567;-64
2021/12/12 21:46:16;;;;;;;9.48;6.40;;;;;;;;;;8289857;28;20463;-64
2021/12/12 21:50:25;;;;;;;7.63;5.80;;;;;;;;;;8292888;28;20029;-64
2021/12/12 21:54:25;;;;;;;8.25;5.60;;;;;;;;;;8292307;28;20029;-64
2021/12/12 21:58:25;;;;;;;7.33;5.77;;;;;;;;;;8291395;28;20045;-64
2021/12/12 22:02:27;;;;;;;6.20;4.65;;;;;;;;;;8288409;28;20652;-64
2021/12/12 22:06:40;;;;;;;6.82;5.35;;;;;;;;;;8290132;28;20144;-65
2021/12/12 22:10:46;;;;;;;6.50;4.77;;;;;;;;;;8289345;28;20029;-64
2021/12/12 22:15:03;;;;;;;7.28;5.13;;;;;;;;;;8290176;28;20124;-64
2021/12/12 22:19:12;;;;;;;6.22;4.60;;;;;;;;;;8292527;28;21077;-64
2021/12/12 22:23:21;;;;;;;5.75;4.40;;;;;;;;;;8287622;28;20371;-64
2021/12/12 22:27:23;;;;;;;5.35;4.10;;;;;;;;;;8289824;28;20037;-64
2021/12/12 22:31:24;;;;;;;4.88;3.75;;;;;;;;;;8288931;28;20048;-64
2021/12/12 22:35:26;;;;;;;3.63;3.28;;;;;;;;;;8288433;28;20715;-64
2021/12/12 22:39:31;;;;;;;2.90;2.58;;;;;;;;;;8290264;28;20551;-64
2021/12/12 22:43:33;;;;;;;3.28;2.47;;;;;;;;;;8292475;28;20033;-64
2021/12/12 22:47:35;;;;;;;3.05;2.75;;;;;;;;;;8288406;28;20122;-64
2021/12/12 22:51:37;;;;;;;3.47;2.90;;;;;;;;;;8290515;28;20736;-64
2021/12/12 22:55:42;;;;;;;3.00;2.70;;;;;;;;;;8288838;28;20029;-64
2021/12/12 22:59:48;;;;;;;3.55;3.10;;;;;;;;;;8291832;28;20061;-64
2021/12/12 23:03:51;;;;;;;3.67;3.22;;;;;;;;;;8287194;28;20357;-64
2021/12/12 23:07:53;;;;;;;3.60;2.90;;;;;;;;;;8286679;28;20029;-64
2021/12/12 23:12:00;;;;;;;3.10;2.80;;;;;;;;;;8285326;28;20029;-64
2021/12/12 23:16:03;;;;;;;4.35;3.88;;;;;;;;;;8288354;28;20030;-64
2021/12/12 23:20:05;;;;;;;6.40;4.57;;;;;;;;;;8290931;28;20886;-64
2021/12/12 23:24:10;;;;;;;4.72;3.72;;;;;;;;;;8287415;28;20512;-64
2021/12/12 23:32:51;;;;;;;3.97;3.45;;;;;;;;;;8285651;28;20044;-64
2021/12/12 23:36:55;;;;;;;3.15;2.72;;;;;;;;;;8288559;28;20091;-64
2021/12/12 23:41:02;;;;;;;4.78;3.50;;;;;;;;;;8289181;28;20029;-65
2021/12/12 23:45:15;;;;;;;2.95;2.65;;;;;;;;;;8288335;28;20045;-64
2021/12/12 23:49:21;;;;;;;3.13;2.83;;;;;;;;;;8292415;28;20091;-64
2021/12/12 23:53:26;;;;;;;3.20;2.90;;;;;;;;;;8289069;28;20081;-64
2021/12/12 23:57:27;;;;;;;3.30;2.65;;;;;;;;;;8290020;28;20017;-64
